createdAt,value
2022-11-04T00:08:26.574Z,50
2022-11-04T00:10:32.941Z,50
2022-11-04T00:12:44.551Z,50
2022-11-04T00:27:40.483Z,50
2022-11-04T00:29:51.791Z,50
2022-11-04T00:38:12.362Z,50
2022-11-04T00:39:16.778Z,52
2022-11-04T00:40:21.396Z,47
2022-11-04T00:41:26.552Z,47
2022-11-04T00:42:30.666Z,48
2022-11-04T01:24:45.194Z,48
2022-11-04T01:25:49.459Z,56
2022-11-04T01:26:54.089Z,55
2022-11-04T01:27:58.667Z,58
2022-11-04T01:29:03.691Z,57
2022-11-04T02:41:53.617Z,32
2022-11-04T02:42:57.902Z,31
2022-11-04T02:44:02.180Z,32
2022-11-04T02:45:14.224Z,30
2022-11-04T02:46:23.882Z,32
2022-11-04T04:50:20.919Z,112
2022-11-04T04:51:25.268Z,117
2022-11-04T04:52:29.329Z,113
2022-11-04T04:55:11.549Z,115
2022-11-04T04:57:18.140Z,115
2022-11-04T04:59:34.416Z,115
2022-11-04T05:01:40.908Z,115
2022-11-04T05:03:47.309Z,115
2022-11-04T05:25:26.377Z,109
2022-11-04T05:26:31.228Z,108
2022-11-04T05:27:36.165Z,113
2022-11-04T05:28:40.630Z,115
2022-11-04T05:29:45.604Z,113
2022-11-04T05:38:37.013Z,113
2022-11-04T05:40:43.112Z,113
2022-11-04T06:08:08.440Z,120
2022-11-04T06:10:14.974Z,120
2022-11-04T06:22:11.403Z,120
2022-11-04T06:24:17.731Z,120
2022-11-04T06:26:27.802Z,120
2022-11-04T06:41:51.677Z,120
2022-11-04T06:43:57.231Z,120
2022-11-04T06:46:03.914Z,120
2022-11-04T06:53:37.552Z,113
2022-11-04T06:55:44.328Z,113
2022-11-04T06:57:50.773Z,113
2022-11-04T07:01:04.938Z,115
2022-11-04T07:02:07.216Z,115
2022-11-04T07:03:11.929Z,118
2022-11-04T07:05:18.300Z,118
2022-11-04T07:15:23.241Z,118
2022-11-04T07:17:26.048Z,118
2022-11-04T07:18:30.571Z,122
2022-11-04T07:19:36.376Z,114
2022-11-04T07:20:45.735Z,119
2022-11-04T07:21:50.075Z,114
2022-11-04T07:22:54.620Z,122
2022-11-04T07:23:59.058Z,116
2022-11-04T07:25:03.163Z,115
2022-11-04T07:26:07.950Z,121
2022-11-04T07:27:12.484Z,108
2022-11-04T07:28:17.011Z,115
2022-11-04T07:29:21.128Z,119
2022-11-04T07:30:26.540Z,117
2022-11-04T07:31:30.821Z,120
2022-11-04T07:32:34.927Z,117
2022-11-04T07:33:39.000Z,116
2022-11-04T07:34:43.760Z,111
2022-11-04T07:35:48.195Z,118
2022-11-04T07:36:52.476Z,117
2022-11-04T07:37:56.967Z,117
2022-11-04T07:39:01.051Z,119
2022-11-04T07:40:05.544Z,121
2022-11-04T07:41:10.739Z,115
2022-11-04T07:42:15.157Z,110
2022-11-04T07:43:19.687Z,113
2022-11-04T07:44:23.816Z,111
2022-11-04T07:45:28.031Z,111
2022-11-04T07:46:32.620Z,108
2022-11-04T07:47:36.732Z,111
2022-11-04T07:48:40.843Z,113
2022-11-04T07:49:45.008Z,115
2022-11-04T07:50:49.448Z,114
2022-11-04T07:51:53.757Z,111
2022-11-04T07:52:58.261Z,113
2022-11-04T07:54:02.588Z,112
2022-11-04T07:55:06.743Z,117
2022-11-04T07:56:11.409Z,107
2022-11-04T07:57:15.978Z,113
2022-11-04T07:58:20.495Z,113
2022-11-04T07:59:24.616Z,123
2022-11-04T08:00:28.768Z,118
2022-11-04T08:01:33.302Z,119
2022-11-04T08:02:37.601Z,118
2022-11-04T08:03:41.844Z,119
2022-11-04T08:04:46.320Z,118
2022-11-04T08:05:50.725Z,119
2022-11-04T08:06:57.947Z,120
2022-11-04T08:08:02.388Z,121
2022-11-04T08:09:07.065Z,125
2022-11-04T08:10:11.555Z,121
2022-11-04T08:11:17.553Z,119
2022-11-04T08:12:19.711Z,119
2022-11-04T08:13:23.839Z,119
2022-11-04T08:14:28.459Z,117
2022-11-04T08:15:33.083Z,118
2022-11-04T08:16:37.623Z,123
2022-11-04T08:17:41.691Z,121
2022-11-04T08:18:45.799Z,118
2022-11-04T08:19:49.881Z,120
2022-11-04T08:20:54.040Z,119
2022-11-04T08:21:58.589Z,117
2022-11-04T08:23:02.927Z,117
2022-11-04T08:24:07.071Z,118
2022-11-04T08:25:11.243Z,117
2022-11-04T08:26:15.812Z,114
2022-11-04T08:27:20.347Z,116
2022-11-04T08:28:24.437Z,117
2022-11-04T08:29:28.509Z,114
2022-11-04T08:30:33.131Z,115
2022-11-04T08:31:37.239Z,117
2022-11-04T08:32:41.395Z,122
2022-11-04T08:33:45.929Z,118
2022-11-04T08:34:49.995Z,117
2022-11-04T08:35:54.061Z,118
2022-11-04T08:36:58.159Z,107
2022-11-04T08:38:02.202Z,112
2022-11-04T08:39:10.529Z,108
2022-11-04T08:40:10.787Z,109
2022-11-04T08:41:14.962Z,113
2022-11-04T08:42:19.603Z,109
2022-11-04T08:43:24.066Z,109
2022-11-04T08:44:28.190Z,105
2022-11-04T08:45:33.751Z,105
2022-11-04T08:46:39.520Z,105
2022-11-04T08:47:44.002Z,105
2022-11-04T08:48:48.245Z,104
2022-11-04T08:49:52.824Z,101
2022-11-04T08:50:57.274Z,102
2022-11-04T08:52:01.400Z,101
2022-11-04T08:53:05.899Z,99
2022-11-04T08:54:10.489Z,99
2022-11-04T08:55:14.953Z,101
2022-11-04T08:56:19.009Z,102
2022-11-04T08:57:23.161Z,101
2022-11-04T08:58:27.487Z,102
2022-11-04T08:59:31.881Z,100
2022-11-04T09:00:36.089Z,99
2022-11-04T09:01:40.553Z,102
2022-11-04T09:02:45.147Z,100
2022-11-04T09:03:49.283Z,104
2022-11-04T09:04:53.863Z,105
2022-11-04T09:05:57.910Z,104
2022-11-04T09:07:06.888Z,104
2022-11-04T09:08:06.850Z,104
2022-11-04T09:09:14.122Z,104
2022-11-04T09:10:18.673Z,111
2022-11-04T09:11:23.337Z,112
2022-11-04T09:12:27.922Z,111
2022-11-04T09:13:36.883Z,115
2022-11-04T09:14:37.359Z,109
2022-11-04T09:15:41.826Z,111
2022-11-04T09:16:46.351Z,108
2022-11-04T09:17:51.317Z,106
2022-11-04T09:18:55.337Z,110
2022-11-04T09:19:59.656Z,105
2022-11-04T09:21:03.934Z,104
2022-11-04T09:22:08.525Z,105
2022-11-04T09:23:12.917Z,102
2022-11-04T09:24:17.301Z,97
2022-11-04T09:25:21.980Z,97
2022-11-04T09:26:26.289Z,97
2022-11-04T09:27:30.493Z,88
2022-11-04T09:28:35.169Z,87
2022-11-04T09:29:39.601Z,92
2022-11-04T09:30:43.733Z,85
2022-11-04T09:31:47.809Z,80
2022-11-04T09:32:52.956Z,78
2022-11-04T09:33:56.599Z,70
2022-11-04T09:35:01.107Z,68
2022-11-04T09:36:05.462Z,67
2022-11-04T09:37:10.109Z,62
2022-11-04T09:38:14.686Z,69
2022-11-04T09:39:19.308Z,66
2022-11-04T09:40:23.880Z,58
2022-11-04T09:41:28.409Z,64
2022-11-04T09:42:40.613Z,57
2022-11-04T09:43:50.396Z,58
2022-11-04T09:46:06.994Z,53
2022-11-04T09:47:11.741Z,51
2022-11-04T09:48:16.194Z,47
2022-11-04T09:49:20.237Z,42
2022-11-04T09:50:24.978Z,55
2022-11-04T09:51:52.955Z,42
2022-11-04T09:52:36.539Z,49
2022-11-04T09:53:40.763Z,44
2022-11-04T09:54:47.395Z,38
2022-11-04T09:55:57.528Z,33
2022-11-04T09:57:02.125Z,38
2022-11-04T09:58:06.632Z,36
2022-11-04T09:59:11.268Z,40
2022-11-04T10:00:15.865Z,35
2022-11-04T10:01:20.430Z,40
2022-11-04T10:02:24.416Z,31
2022-11-04T10:03:34.156Z,35
2022-11-04T10:04:43.795Z,38
2022-11-04T10:05:51.141Z,34
2022-11-04T10:07:03.138Z,30
2022-11-04T10:08:07.810Z,33
2022-11-04T10:09:22.465Z,26
2022-11-04T10:10:34.625Z,31
2022-11-04T10:11:44.472Z,33
2022-11-04T10:12:54.282Z,30
2022-11-04T10:14:06.820Z,25
2022-11-04T10:15:19.508Z,32
2022-11-04T10:16:31.670Z,36
2022-11-04T10:17:41.461Z,42
2022-11-04T10:18:56.165Z,36
2022-11-04T10:20:11.056Z,30
2022-11-04T10:21:18.570Z,29
2022-11-04T10:22:25.685Z,29
2022-11-04T10:23:33.437Z,29
2022-11-04T10:24:42.936Z,32
2022-11-04T10:25:57.744Z,25
2022-11-04T10:27:04.748Z,32
2022-11-04T10:28:17.410Z,30
2022-11-04T10:29:21.558Z,25
2022-11-04T10:30:34.325Z,30
2022-11-04T10:31:38.957Z,26
2022-11-04T10:32:43.563Z,29
2022-11-04T10:33:53.149Z,31
2022-11-04T10:34:57.224Z,30
2022-11-04T10:36:06.849Z,35
2022-11-04T10:37:11.524Z,40
2022-11-04T10:38:15.577Z,36
2022-11-04T10:39:30.380Z,34
2022-11-04T10:40:34.925Z,29
2022-11-04T10:41:39.220Z,33
2022-11-04T10:42:43.676Z,33
2022-11-04T10:43:48.236Z,38
2022-11-04T10:44:52.725Z,34
2022-11-04T10:45:56.913Z,38
2022-11-04T10:47:08.952Z,38
2022-11-04T10:48:23.753Z,28
2022-11-04T10:49:33.509Z,33
2022-11-04T10:50:43.126Z,27
2022-11-04T10:51:50.393Z,33
2022-11-04T10:52:55.158Z,40
2022-11-04T10:54:09.596Z,42
2022-11-04T10:55:14.121Z,47
2022-11-04T10:56:26.510Z,45
2022-11-04T10:57:41.329Z,48
2022-11-04T10:58:45.709Z,44
2022-11-04T10:59:49.961Z,49
2022-11-04T11:01:00.736Z,49
2022-11-04T11:02:15.204Z,56
2022-11-04T11:03:19.257Z,57
2022-11-04T11:04:26.393Z,62
2022-11-04T11:05:33.594Z,69
2022-11-04T11:06:38.156Z,68
2022-11-04T11:07:42.341Z,68
2022-11-04T11:08:46.925Z,71
2022-11-04T11:09:53.716Z,64
2022-11-04T11:10:55.531Z,72
2022-11-04T11:11:59.724Z,72
2022-11-04T11:13:04.097Z,68
2022-11-04T11:14:09.294Z,66
2022-11-04T11:15:18.924Z,73
2022-11-04T11:16:28.252Z,71
2022-11-04T11:17:33.009Z,76
2022-11-04T11:18:37.281Z,76
2022-11-04T11:19:41.877Z,73
2022-11-04T11:20:49.038Z,72
2022-11-04T11:21:53.619Z,73
2022-11-04T11:23:01.999Z,78
2022-11-04T11:24:01.880Z,88
2022-11-04T11:25:06.449Z,96
2022-11-04T11:26:13.965Z,85
2022-11-04T11:27:21.001Z,92
2022-11-04T11:28:25.661Z,90
2022-11-04T11:29:29.924Z,92
2022-11-04T11:30:34.920Z,92
2022-11-04T11:31:44.612Z,93
2022-11-04T11:32:49.221Z,91
2022-11-04T11:33:53.832Z,100
2022-11-04T11:34:58.400Z,106
2022-11-04T11:36:03.072Z,113
2022-11-04T11:37:10.780Z,108
2022-11-04T11:38:21.188Z,101
2022-11-04T11:39:28.394Z,103
2022-11-04T11:40:32.897Z,106
2022-11-04T11:41:41.049Z,106
2022-11-04T11:42:49.317Z,112
2022-11-04T11:43:54.322Z,111
2022-11-04T11:45:09.237Z,114
2022-11-04T11:46:13.881Z,114
2022-11-04T11:47:26.045Z,111
2022-11-04T11:48:30.472Z,114
2022-11-04T11:49:39.740Z,113
2022-11-04T11:50:44.353Z,121
2022-11-04T11:51:48.917Z,125
2022-11-04T11:52:53.592Z,125
2022-11-04T11:53:58.095Z,111
2022-11-04T11:55:02.822Z,107
2022-11-04T11:56:17.346Z,106
2022-11-04T11:57:25.577Z,114
2022-11-04T12:00:56.850Z,109
2022-11-04T12:02:02.820Z,118
2022-11-04T12:03:18.177Z,119
2022-11-04T12:10:07.325Z,118
2022-11-04T12:11:15.090Z,121
2022-11-04T12:12:22.129Z,116
2022-11-04T12:13:32.200Z,124
2022-11-04T12:14:44.809Z,121
2022-11-04T12:15:56.700Z,119
2022-11-04T12:17:06.570Z,116
2022-11-04T12:18:13.620Z,122
2022-11-04T12:19:28.546Z,121
2022-11-04T12:20:38.720Z,120
2022-11-04T12:21:53.384Z,120
2022-11-04T12:23:03.097Z,128
2022-11-04T12:24:12.865Z,128
2022-11-04T12:25:17.284Z,114
2022-11-04T12:26:29.610Z,114
2022-11-04T12:27:39.171Z,105
2022-11-04T12:28:48.912Z,121
2022-11-04T12:29:58.573Z,119
2022-11-04T12:31:06.298Z,114
2022-11-04T12:32:15.821Z,115
2022-11-04T12:33:30.680Z,111
2022-11-04T12:34:40.578Z,117
2022-11-04T12:35:55.060Z,113
2022-11-04T12:37:08.073Z,117
2022-11-04T12:38:20.516Z,114
2022-11-04T12:39:35.325Z,119
2022-11-04T12:40:54.587Z,114
2022-11-04T12:43:09.518Z,114
2022-11-04T12:44:18.900Z,117
2022-11-04T12:45:29.235Z,122
2022-11-04T12:46:42.049Z,114
2022-11-04T12:47:54.583Z,116
2022-11-04T12:49:06.997Z,112
2022-11-04T12:50:16.521Z,113
2022-11-04T12:51:31.320Z,113
2022-11-04T12:52:38.544Z,110
2022-11-04T12:53:50.714Z,119
2022-11-04T12:54:54.691Z,109
2022-11-04T12:56:09.497Z,109
2022-11-04T12:57:14.035Z,112
2022-11-04T12:58:23.867Z,111
2022-11-04T12:59:38.599Z,111
2022-11-04T13:00:48.332Z,108
2022-11-04T13:01:53.012Z,108
2022-11-04T13:02:57.536Z,113
2022-11-04T13:04:02.052Z,121
2022-11-04T13:05:11.605Z,120
2022-11-04T13:06:23.971Z,122
2022-11-04T13:07:28.591Z,119
2022-11-04T13:08:40.720Z,118
2022-11-04T13:09:51.024Z,122
2022-11-04T13:10:55.816Z,120
2022-11-04T13:12:00.231Z,130
2022-11-04T13:13:04.764Z,119
2022-11-04T13:14:09.317Z,124
2022-11-04T13:15:13.875Z,119
2022-11-04T13:16:18.486Z,122
2022-11-04T13:17:23.128Z,118
2022-11-04T13:18:27.739Z,118
2022-11-04T13:19:32.323Z,119
2022-11-04T13:20:44.488Z,120
2022-11-04T13:21:48.680Z,121
2022-11-04T13:22:53.242Z,119
2022-11-04T13:23:57.831Z,115
2022-11-04T13:25:08.319Z,121
2022-11-04T13:26:23.179Z,120
2022-11-04T13:27:27.822Z,121
2022-11-04T13:28:32.495Z,112
2022-11-04T13:29:36.903Z,121
2022-11-04T13:30:41.018Z,120
2022-11-04T13:31:53.530Z,123
2022-11-04T13:33:01.031Z,111
2022-11-04T13:34:13.883Z,115
2022-11-04T13:35:18.182Z,119
2022-11-04T13:36:30.490Z,115
2022-11-04T13:37:34.967Z,111
2022-11-04T13:38:42.162Z,116
2022-11-04T13:39:46.735Z,120
2022-11-04T13:40:51.399Z,117
2022-11-04T13:42:05.963Z,110
2022-11-04T13:43:11.045Z,117
2022-11-04T13:44:25.334Z,120
2022-11-04T13:45:29.958Z,118
2022-11-04T13:46:34.521Z,121
2022-11-04T13:47:38.702Z,124
2022-11-04T13:48:49.455Z,118
2022-11-04T13:49:59.021Z,123
2022-11-04T13:51:03.162Z,120
2022-11-04T13:52:07.546Z,115
2022-11-04T13:53:11.940Z,127
2022-11-04T13:54:15.875Z,112
2022-11-04T13:55:28.055Z,116
2022-11-04T13:56:34.062Z,116
2022-11-04T13:57:39.311Z,123
2022-11-04T13:58:49.176Z,128
2022-11-04T13:59:53.063Z,119
2022-11-04T14:01:07.762Z,122
2022-11-04T14:02:15.055Z,119
2022-11-04T14:03:22.070Z,121
2022-11-04T14:04:29.653Z,118
2022-11-04T14:05:33.806Z,110
2022-11-04T14:06:37.910Z,112
2022-11-04T14:07:47.644Z,121
2022-11-04T14:08:57.297Z,120
2022-11-04T14:10:11.975Z,115
2022-11-04T14:11:26.771Z,114
2022-11-04T14:12:31.527Z,114
2022-11-04T14:13:35.939Z,113
2022-11-04T14:14:43.132Z,110
2022-11-04T14:15:47.378Z,114
2022-11-04T14:17:01.983Z,119
2022-11-04T14:18:10.557Z,119
2022-11-04T14:19:10.958Z,118
2022-11-04T14:20:25.758Z,116
2022-11-04T14:21:29.914Z,116
2022-11-04T14:22:34.685Z,114
2022-11-04T14:23:44.159Z,117
2022-11-04T14:24:53.862Z,119
2022-11-04T14:25:57.959Z,116
2022-11-04T14:27:05.157Z,119
2022-11-04T14:28:09.590Z,132
2022-11-04T14:29:16.778Z,131
2022-11-04T14:30:24.402Z,130
2022-11-04T14:31:31.516Z,127
2022-11-04T14:32:38.754Z,115
2022-11-04T14:33:43.254Z,114
2022-11-04T14:34:52.850Z,117
2022-11-04T14:35:59.523Z,114
2022-11-04T14:37:14.190Z,111
2022-11-04T14:38:23.899Z,114
2022-11-04T14:39:31.061Z,119
2022-11-04T14:40:40.776Z,114
2022-11-04T14:41:47.934Z,116
2022-11-04T14:42:57.574Z,120
2022-11-04T14:44:01.666Z,122
2022-11-04T14:45:08.671Z,110
2022-11-04T14:46:12.870Z,118
2022-11-04T14:47:19.939Z,117
2022-11-04T14:48:27.579Z,120
2022-11-04T14:49:31.780Z,120
2022-11-04T14:50:41.383Z,109
2022-11-04T14:51:46.123Z,111
2022-11-04T14:52:50.651Z,113
2022-11-04T14:54:00.284Z,112
2022-11-04T14:55:09.990Z,113
2022-11-04T14:56:23.700Z,116
2022-11-04T14:57:24.790Z,110
2022-11-04T14:58:29.211Z,116
2022-11-04T14:59:33.394Z,110
2022-11-04T15:00:38.456Z,108
2022-11-04T15:01:50.886Z,111
2022-11-04T15:02:56.384Z,114
2022-11-04T15:04:11.907Z,120
2022-11-04T15:05:21.360Z,120
2022-11-04T15:06:35.157Z,117
2022-11-04T15:07:33.482Z,120
2022-11-04T15:08:40.680Z,114
2022-11-04T15:09:44.758Z,113
2022-11-04T15:10:48.914Z,111
2022-11-04T15:11:53.623Z,117
2022-11-04T15:13:03.298Z,116
2022-11-04T15:14:08.095Z,112
2022-11-04T15:15:14.790Z,118
2022-11-04T15:16:30.570Z,120
2022-11-04T15:17:35.313Z,119
2022-11-04T15:18:39.869Z,119
2022-11-04T15:19:44.495Z,120
2022-11-04T15:20:48.916Z,115
2022-11-04T15:21:59.302Z,117
2022-11-04T15:23:03.430Z,111
2022-11-04T15:24:07.755Z,112
2022-11-04T15:25:12.227Z,114
2022-11-04T15:26:16.491Z,116
2022-11-04T15:27:27.842Z,117
2022-11-04T15:28:32.799Z,121
2022-11-04T15:29:37.178Z,120
2022-11-04T15:30:42.150Z,119
2022-11-04T15:31:46.771Z,111
2022-11-04T15:32:56.414Z,114
2022-11-04T15:34:01.077Z,118
2022-11-04T15:35:05.032Z,116
2022-11-04T15:36:09.528Z,115
2022-11-04T15:37:19.709Z,114
2022-11-04T15:38:24.509Z,117
2022-11-04T15:39:28.812Z,112
2022-11-04T15:40:33.397Z,110
2022-11-04T15:41:38.650Z,116
2022-11-04T15:42:47.285Z,116
2022-11-04T15:43:51.797Z,117
2022-11-04T15:44:56.700Z,114
2022-11-04T15:46:01.100Z,112
2022-11-04T15:47:07.964Z,118
2022-11-04T15:48:18.828Z,118
2022-11-04T15:49:31.012Z,116
2022-11-04T15:50:38.113Z,117
2022-11-04T15:51:42.284Z,109
2022-11-04T15:52:46.880Z,114
2022-11-04T15:53:54.456Z,116
2022-11-04T15:54:58.569Z,122
2022-11-04T15:56:02.720Z,123
2022-11-04T15:57:07.274Z,123
2022-11-04T15:58:21.895Z,118
2022-11-04T15:59:26.441Z,119
2022-11-04T16:00:33.342Z,118
2022-11-04T16:01:38.053Z,117
2022-11-04T16:02:47.656Z,128
2022-11-04T16:03:57.207Z,112
2022-11-04T16:05:01.382Z,119
2022-11-04T16:06:08.373Z,118
2022-11-04T16:07:12.900Z,121
2022-11-04T16:08:16.980Z,124
2022-11-04T16:09:21.337Z,122
2022-11-04T16:10:28.304Z,124
2022-11-04T16:11:35.589Z,117
2022-11-04T16:12:39.997Z,127
2022-11-04T16:13:44.202Z,125
2022-11-04T16:14:48.875Z,126
2022-11-04T16:15:53.452Z,122
2022-11-04T16:16:58.141Z,122
2022-11-04T16:18:02.557Z,119
2022-11-04T16:19:06.714Z,119
2022-11-04T16:20:11.149Z,122
2022-11-04T16:21:15.828Z,122
2022-11-04T16:22:30.467Z,116
2022-11-04T16:23:37.772Z,122
2022-11-04T16:24:45.539Z,119
2022-11-04T16:25:50.172Z,115
2022-11-04T16:27:00.749Z,120
2022-11-04T16:28:05.376Z,120
2022-11-04T16:29:09.831Z,121
2022-11-04T16:30:17.446Z,124
2022-11-04T16:31:21.976Z,121
2022-11-04T16:32:29.343Z,113
2022-11-04T16:33:43.970Z,117
2022-11-04T16:34:48.112Z,122
2022-11-04T16:35:52.744Z,113
2022-11-04T16:36:56.880Z,121
2022-11-04T16:38:01.700Z,119
2022-11-04T16:39:06.132Z,119
2022-11-04T16:40:10.561Z,119
2022-11-04T16:41:15.132Z,117
2022-11-04T16:42:19.714Z,117
2022-11-04T16:43:24.319Z,119
2022-11-04T16:44:29.108Z,119
2022-11-04T16:45:33.687Z,123
2022-11-04T16:46:38.165Z,121
2022-11-04T16:47:43.385Z,118
2022-11-04T16:48:47.920Z,127
2022-11-04T16:49:52.512Z,118
2022-11-04T16:51:02.156Z,115
2022-11-04T16:52:06.479Z,117
2022-11-04T16:53:11.158Z,121
2022-11-04T16:54:15.412Z,121
2022-11-04T16:55:19.949Z,119
2022-11-04T16:56:24.607Z,123
2022-11-04T16:57:29.144Z,120
2022-11-04T16:58:33.859Z,124
2022-11-04T16:59:38.527Z,120
2022-11-04T17:00:42.949Z,122
2022-11-04T17:01:47.730Z,123
2022-11-04T17:02:52.192Z,124
2022-11-04T17:03:56.728Z,123
2022-11-04T17:05:01.506Z,121
2022-11-04T17:06:06.165Z,120
2022-11-04T17:07:10.632Z,119
2022-11-04T17:08:15.108Z,118
2022-11-04T17:09:22.491Z,119
2022-11-04T17:10:27.085Z,122
2022-11-04T17:11:31.465Z,121
2022-11-04T17:12:36.237Z,122
2022-11-04T17:13:40.726Z,121
2022-11-04T17:14:45.161Z,123
2022-11-04T17:15:49.744Z,120
2022-11-04T17:16:57.016Z,122
2022-11-04T17:18:00.680Z,122
2022-11-04T17:19:09.301Z,122
2022-11-04T17:20:17.158Z,122
2022-11-04T17:21:22.414Z,120
2022-11-04T17:22:31.390Z,121
2022-11-04T17:23:35.962Z,122
2022-11-04T17:24:42.158Z,122
2022-11-04T17:25:46.712Z,123
2022-11-04T17:26:50.878Z,123
2022-11-04T17:27:56.018Z,120
2022-11-04T17:29:00.818Z,120
2022-11-04T17:30:05.366Z,123
2022-11-04T17:31:10.072Z,122
2022-11-04T17:32:14.419Z,121
2022-11-04T17:33:19.174Z,124
2022-11-04T17:34:23.573Z,122
2022-11-04T17:35:27.932Z,117
2022-11-04T17:36:32.166Z,120
2022-11-04T17:37:36.935Z,123
2022-11-04T17:38:41.511Z,122
2022-11-04T17:39:46.175Z,120
2022-11-04T17:40:50.615Z,121
2022-11-04T17:42:00.250Z,120
2022-11-04T17:43:12.116Z,121
2022-11-04T17:44:19.495Z,118
2022-11-04T17:45:23.770Z,124
2022-11-04T17:46:28.170Z,120
2022-11-04T17:47:35.390Z,119
2022-11-04T17:48:40.046Z,118
2022-11-04T17:49:44.846Z,122
2022-11-04T17:50:49.548Z,123
2022-11-04T17:51:54.034Z,120
2022-11-04T17:52:58.282Z,122
2022-11-04T17:54:02.490Z,120
2022-11-04T17:55:09.021Z,124
2022-11-04T17:56:11.633Z,124
2022-11-04T17:57:16.122Z,120
2022-11-04T17:58:20.666Z,123
2022-11-04T17:59:25.291Z,120
2022-11-04T18:00:30.377Z,123
2022-11-04T18:01:34.949Z,120
2022-11-04T18:02:43.546Z,121
2022-11-04T18:03:47.775Z,119
2022-11-04T18:04:52.487Z,121
2022-11-04T18:05:57.352Z,119
2022-11-04T18:07:03.473Z,114
2022-11-04T18:08:09.075Z,118
2022-11-04T18:09:13.730Z,116
2022-11-04T18:10:18.382Z,111
2022-11-04T18:11:22.983Z,112
2022-11-04T18:12:32.691Z,113
2022-11-04T18:13:39.927Z,111
2022-11-04T18:14:44.621Z,110
2022-11-04T18:15:49.268Z,109
2022-11-04T18:16:53.634Z,110
2022-11-04T18:17:59.138Z,112
2022-11-04T18:19:03.283Z,111
2022-11-04T18:20:13.275Z,114
2022-11-04T18:21:13.646Z,112
2022-11-04T18:22:18.587Z,112
2022-11-04T18:23:24.139Z,114
2022-11-04T18:24:28.860Z,112
2022-11-04T18:25:34.671Z,115
2022-11-04T18:26:39.187Z,114
2022-11-04T18:27:43.835Z,117
2022-11-04T18:28:48.115Z,116
2022-11-04T18:29:52.475Z,120
2022-11-04T18:30:56.976Z,120
2022-11-04T18:32:01.459Z,120
2022-11-04T18:33:06.106Z,120
2022-11-04T18:34:10.518Z,121
2022-11-04T18:35:15.165Z,124
2022-11-04T18:36:19.993Z,119
2022-11-04T18:37:24.420Z,124
2022-11-04T18:38:29.083Z,119
2022-11-04T18:39:33.484Z,120
2022-11-04T18:40:38.961Z,120
2022-11-04T18:41:44.595Z,124
2022-11-04T18:42:49.094Z,122
2022-11-04T18:43:53.415Z,122
2022-11-04T18:44:58.121Z,120
2022-11-04T18:46:02.719Z,124
2022-11-04T18:47:07.355Z,122
2022-11-04T18:48:12.000Z,126
2022-11-04T18:49:16.210Z,122
2022-11-04T18:50:20.342Z,118
2022-11-04T18:51:24.367Z,120
2022-11-04T18:52:28.738Z,120
2022-11-04T18:53:33.352Z,123
2022-11-04T18:54:37.922Z,123
2022-11-04T18:55:44.918Z,126
2022-11-04T18:56:49.236Z,122
2022-11-04T18:57:53.690Z,121
2022-11-04T18:58:58.182Z,124
2022-11-04T19:00:02.974Z,124
2022-11-04T19:01:07.881Z,123
2022-11-04T19:02:12.479Z,123
2022-11-04T19:03:22.206Z,124
2022-11-04T19:04:26.666Z,120
2022-11-04T19:05:31.210Z,122
2022-11-04T19:06:35.722Z,119
2022-11-04T19:07:39.964Z,119
2022-11-04T19:08:46.806Z,123
2022-11-04T19:09:49.191Z,119
2022-11-04T19:11:00.977Z,121
2022-11-04T19:11:57.778Z,124
2022-11-04T19:13:07.579Z,121
2022-11-04T19:14:17.106Z,123
2022-11-04T19:15:21.709Z,122
2022-11-04T19:16:26.302Z,124
2022-11-04T19:17:30.988Z,124
2022-11-04T19:18:35.710Z,113
2022-11-04T19:19:40.072Z,116
2022-11-04T19:20:45.031Z,121
2022-11-04T19:21:49.538Z,118
2022-11-04T19:22:54.145Z,115
2022-11-04T19:23:58.583Z,114
2022-11-04T19:25:03.150Z,117
2022-11-04T19:26:07.724Z,118
2022-11-04T19:27:15.311Z,114
2022-11-04T19:28:34.954Z,120
2022-11-04T19:29:24.332Z,123
2022-11-04T19:30:28.750Z,119
2022-11-04T19:31:33.428Z,119
2022-11-04T19:32:37.932Z,112
2022-11-04T19:33:42.195Z,120
2022-11-04T19:34:46.614Z,115
2022-11-04T19:35:51.290Z,118
2022-11-04T19:36:56.010Z,116
2022-11-04T19:38:00.440Z,118
2022-11-04T19:39:04.845Z,119
2022-11-04T19:40:09.361Z,126
2022-11-04T19:41:14.092Z,123
2022-11-04T19:42:23.674Z,124
2022-11-04T19:43:33.319Z,128
2022-11-04T19:44:38.238Z,133
2022-11-04T19:45:42.466Z,128
2022-11-04T19:46:47.211Z,126
2022-11-04T19:47:51.774Z,132
2022-11-04T19:48:56.294Z,126
2022-11-04T19:50:00.494Z,136
2022-11-04T19:51:04.894Z,130
2022-11-04T19:52:09.230Z,122
2022-11-04T19:53:13.677Z,132
2022-11-04T19:54:18.322Z,117
2022-11-04T19:55:22.918Z,117
2022-11-04T19:56:27.593Z,107
2022-11-04T19:57:31.942Z,104
2022-11-04T19:58:36.094Z,99
2022-11-04T19:59:40.702Z,103
2022-11-04T20:00:45.518Z,111
2022-11-04T20:01:49.977Z,103
2022-11-04T20:02:54.187Z,111
2022-11-04T20:03:59.042Z,120
2022-11-04T20:05:03.664Z,115
2022-11-04T20:06:08.239Z,112
2022-11-04T20:07:13.066Z,115
2022-11-04T20:08:17.642Z,119
2022-11-04T20:09:22.339Z,118
2022-11-04T20:10:26.730Z,122
2022-11-04T20:11:31.451Z,128
2022-11-04T20:12:35.843Z,114
2022-11-04T20:13:46.080Z,124
2022-11-04T20:14:50.882Z,114
2022-11-04T20:15:55.169Z,124
2022-11-04T20:16:59.344Z,124
2022-11-04T20:18:05.210Z,124
2022-11-04T20:19:09.542Z,126
2022-11-04T20:20:14.125Z,121
2022-11-04T20:21:18.579Z,119
2022-11-04T20:22:22.819Z,119
2022-11-04T20:23:28.314Z,110
2022-11-04T20:24:32.994Z,116
2022-11-04T20:25:37.611Z,111
2022-11-04T20:26:42.079Z,112
2022-11-04T20:27:46.194Z,110
2022-11-04T20:28:50.830Z,109
2022-11-04T20:29:55.407Z,113
2022-11-04T20:31:00.021Z,109
2022-11-04T20:32:04.661Z,115
2022-11-04T20:33:09.182Z,111
2022-11-04T20:34:13.741Z,110
2022-11-04T20:35:18.442Z,119
2022-11-04T20:36:23.450Z,116
2022-11-04T20:37:28.083Z,118
2022-11-04T20:38:33.192Z,120
2022-11-04T20:39:37.311Z,128
2022-11-04T20:40:41.854Z,117
2022-11-04T20:41:46.499Z,125
2022-11-04T20:42:51.035Z,133
2022-11-04T20:43:55.742Z,130
2022-11-04T20:45:00.312Z,131
2022-11-04T20:46:04.934Z,130
2022-11-04T20:47:12.466Z,124
2022-11-04T20:48:17.007Z,132
2022-11-04T20:49:21.533Z,133
2022-11-04T20:50:25.902Z,124
2022-11-04T20:51:30.223Z,128
2022-11-04T20:52:34.482Z,127
2022-11-04T20:53:39.061Z,128
2022-11-04T20:54:43.598Z,117
2022-11-04T20:55:48.058Z,120
2022-11-04T20:56:52.374Z,123
2022-11-04T20:57:57.211Z,128
2022-11-04T20:59:01.431Z,107
2022-11-04T21:00:05.633Z,111
2022-11-04T21:01:10.368Z,110
2022-11-04T21:02:21.009Z,109
2022-11-04T21:03:25.310Z,111
2022-11-04T21:04:34.905Z,105
2022-11-04T21:05:34.574Z,105
2022-11-04T21:06:39.377Z,99
2022-11-04T21:07:43.885Z,102
2022-11-04T21:08:48.579Z,95
2022-11-04T21:09:53.178Z,94
2022-11-04T21:10:57.550Z,100
2022-11-04T21:12:01.698Z,94
2022-11-04T21:13:06.373Z,94
2022-11-04T21:14:10.966Z,97
2022-11-04T21:15:15.674Z,94
2022-11-04T21:16:25.390Z,92
2022-11-04T21:17:30.002Z,105
2022-11-04T21:18:34.324Z,98
2022-11-04T21:19:39.085Z,100
2022-11-04T21:20:43.801Z,104
2022-11-04T21:21:48.195Z,117
2022-11-04T21:22:52.817Z,119
2022-11-04T21:23:57.480Z,115
2022-11-04T21:25:02.076Z,111
2022-11-04T21:26:06.663Z,117
2022-11-04T21:27:11.463Z,118
2022-11-04T21:28:15.749Z,116
2022-11-04T21:29:20.318Z,120
2022-11-04T21:30:29.027Z,115
2022-11-04T21:31:29.398Z,114
2022-11-04T21:32:34.059Z,111
2022-11-04T21:33:38.662Z,125
2022-11-04T21:34:43.290Z,118
2022-11-04T21:35:47.891Z,122
2022-11-04T21:36:52.394Z,114
2022-11-04T21:37:57.334Z,119
2022-11-04T21:39:01.799Z,122
2022-11-04T21:40:06.202Z,119
2022-11-04T21:41:10.870Z,113
2022-11-04T21:42:15.386Z,117
2022-11-04T21:43:19.910Z,119
2022-11-04T21:44:24.554Z,117
2022-11-04T21:45:29.086Z,118
2022-11-04T21:46:33.634Z,106